Gifu, Japan
Current Conditions -  °F | °C
As of 11:30 AM on Monday 24 Nov 2014 (Local Time) from RJGG Reporting Station
Scattered Clouds Scattered Clouds  
Wind Chill: 59°   Ceiling: Unl
Heat Index: 59°   Visibility: 6mi
Dew Point: 43°   Wind: 10mph
Humidity: 55%   Direction: 340°NNW
Pressure: 30.18"   Gusts: NA
Location:  35.42°N, 136.76°E
Report Text: RJGG 240230Z 34009KT 9999 FEW030 SCT/// 15/06 Q1022 NOSIG
Loading
Personal Weather Stations






























Interactive Weather Map New forecast layout! Learn more

10-Day Weather Forecast

Advertisements
Track Severe Weather on mobile